This is the latest recevied weather packets stored in our database for station/object PY1LEO-13. If no packets are shown the sender has not sent any weather packets the latest 10 day(s).
| Time | Temp. | Humidity | Pressure | Rain* | Wind** | Luminosity | Snow |
|---|---|---|---|---|---|---|---|
| 1777729862 | 28.89° C | 57% | 1015.8 hPa | - | - | - | - |
| 1777729562 | 31.11° C | 50% | 1015.8 hPa | - | - | - | - |
| 1777729262 | 30° C | 53% | 1015.8 hPa | - | - | - | - |
| 1777728962 | 30° C | 55% | 1015.9 hPa | - | - | - | - |
| 1777728662 | 28.89° C | 59% | 1016 hPa | - | - | - | - |
| 1777728363 | 29.44° C | 58% | 1016.1 hPa | - | - | - | - |
| 1777728063 | 29.44° C | 57% | 1016.2 hPa | - | - | - | - |
| 1777727763 | 28.33° C | 62% | 1016.3 hPa | - | - | - | - |
| 1777727462 | 30° C | 58% | 1016.4 hPa | - | - | - | - |
| 1777727162 | 28.89° C | 60% | 1016.4 hPa | - | - | - | - |
| 1777726862 | 29.44° C | 59% | 1016.5 hPa | - | - | - | - |
| 1777726562 | 28.89° C | 60% | 1016.6 hPa | - | - | - | - |
| 1777726263 | 28.89° C | 62% | 1016.6 hPa | - | - | - | - |
| 1777725963 | 28.89° C | 62% | 1016.7 hPa | - | - | - | - |
| 1777725663 | 28.33° C | 63% | 1016.8 hPa | - | - | - | - |
| 1777725363 | 28.89° C | 62% | 1016.8 hPa | - | - | - | - |
| 1777725062 | 28.89° C | 61% | 1016.8 hPa | - | - | - | - |
| 1777724762 | 28.33° C | 62% | 1016.8 hPa | - | - | - | - |
| 1777724463 | 28.33° C | 63% | 1016.8 hPa | - | - | - | - |
| 1777724162 | 27.78° C | 64% | 1016.7 hPa | - | - | - | - |
| 1777723862 | 27.78° C | 65% | 1016.8 hPa | - | - | - | - |
| 1777723562 | 28.33° C | 64% | 1016.7 hPa | - | - | - | - |
| 1777723262 | 27.78° C | 66% | 1016.8 hPa | - | - | - | - |
| 1777722962 | 27.78° C | 67% | 1016.7 hPa | - | - | - | - |
| 1777722663 | 27.22° C | 68% | 1016.8 hPa | - | - | - | - |
* Rain since midnight (hover to see other rain measurements)
** Current wind speed in m/s (hover to see current wind gust speed)